sensor_id;sensor_type;location;lat;lon;timestamp;pressure;altitude;pressure_sealevel;temperature;humidity
5905;BME280;2978;42.012;24.880;2022-12-24T00:00:11;98643.66;;;8.55;75.28
5905;BME280;2978;42.012;24.880;2022-12-24T00:02:37;98630.75;;;8.51;74.72
5905;BME280;2978;42.012;24.880;2022-12-24T00:05:02;98621.91;;;8.39;75.50
5905;BME280;2978;42.012;24.880;2022-12-24T00:07:28;98625.44;;;8.34;75.32
5905;BME280;2978;42.012;24.880;2022-12-24T00:09:53;98626.34;;;8.45;75.04
5905;BME280;2978;42.012;24.880;2022-12-24T00:12:19;98626.88;;;8.42;74.50
5905;BME280;2978;42.012;24.880;2022-12-24T00:14:44;98630.97;;;8.44;74.51
5905;BME280;2978;42.012;24.880;2022-12-24T00:17:09;98623.88;;;8.43;74.76
5905;BME280;2978;42.012;24.880;2022-12-24T00:19:35;98639.44;;;8.38;74.75
5905;BME280;2978;42.012;24.880;2022-12-24T00:22:00;98640.19;;;8.28;74.97
5905;BME280;2978;42.012;24.880;2022-12-24T00:24:26;98637.44;;;8.28;75.23
5905;BME280;2978;42.012;24.880;2022-12-24T00:26:51;98638.03;;;8.35;74.63
5905;BME280;2978;42.012;24.880;2022-12-24T00:29:16;98625.22;;;8.41;74.36
5905;BME280;2978;42.012;24.880;2022-12-24T00:31:42;98628.56;;;8.53;74.10
5905;BME280;2978;42.012;24.880;2022-12-24T00:34:07;98633.25;;;8.52;74.17
5905;BME280;2978;42.012;24.880;2022-12-24T00:36:33;98636.50;;;8.54;73.84
5905;BME280;2978;42.012;24.880;2022-12-24T00:38:58;98631.81;;;8.45;73.53
5905;BME280;2978;42.012;24.880;2022-12-24T00:41:24;98637.03;;;8.46;73.77
5905;BME280;2978;42.012;24.880;2022-12-24T00:44:03;98643.06;;;8.48;74.06
5905;BME280;2978;42.012;24.880;2022-12-24T00:46:35;98648.84;;;8.52;74.08
5905;BME280;2978;42.012;24.880;2022-12-24T00:49:01;98654.53;;;8.40;73.84
5905;BME280;2978;42.012;24.880;2022-12-24T00:51:27;98661.16;;;8.49;73.48
5905;BME280;2978;42.012;24.880;2022-12-24T00:53:52;98649.16;;;8.55;73.63
5905;BME280;2978;42.012;24.880;2022-12-24T00:56:18;98643.94;;;8.54;73.32
5905;BME280;2978;42.012;24.880;2022-12-24T00:58:44;98628.50;;;8.43;73.52
5905;BME280;2978;42.012;24.880;2022-12-24T01:01:09;98624.97;;;8.47;73.35
5905;BME280;2978;42.012;24.880;2022-12-24T01:03:35;98626.34;;;8.45;73.86
5905;BME280;2978;42.012;24.880;2022-12-24T01:06:08;98641.16;;;8.49;73.60
5905;BME280;2978;42.012;24.880;2022-12-24T01:08:35;98637.00;;;8.41;73.92
5905;BME280;2978;42.012;24.880;2022-12-24T01:11:02;98632.63;;;8.40;73.84
5905;BME280;2978;42.012;24.880;2022-12-24T01:13:28;98634.47;;;8.30;73.83
5905;BME280;2978;42.012;24.880;2022-12-24T01:15:54;98617.41;;;8.23;74.27
5905;BME280;2978;42.012;24.880;2022-12-24T01:18:20;98617.75;;;8.26;74.28
5905;BME280;2978;42.012;24.880;2022-12-24T01:20:56;98613.63;;;8.29;74.33
5905;BME280;2978;42.012;24.880;2022-12-24T01:23:22;98605.22;;;8.40;73.62
5905;BME280;2978;42.012;24.880;2022-12-24T01:25:48;98598.91;;;8.40;73.58
5905;BME280;2978;42.012;24.880;2022-12-24T01:28:13;98603.53;;;8.34;73.64
5905;BME280;2978;42.012;24.880;2022-12-24T01:30:40;98594.78;;;8.37;73.71
5905;BME280;2978;42.012;24.880;2022-12-24T01:33:05;98601.78;;;8.23;74.19
5905;BME280;2978;42.012;24.880;2022-12-24T01:35:31;98602.88;;;8.22;73.88
5905;BME280;2978;42.012;24.880;2022-12-24T01:37:56;98603.38;;;8.14;74.16
5905;BME280;2978;42.012;24.880;2022-12-24T01:40:25;98606.34;;;8.13;74.73
5905;BME280;2978;42.012;24.880;2022-12-24T01:43:16;98601.72;;;8.13;74.43
5905;BME280;2978;42.012;24.880;2022-12-24T01:46:06;98593.25;;;8.15;74.25
5905;BME280;2978;42.012;24.880;2022-12-24T01:48:43;98597.00;;;8.04;74.42
5905;BME280;2978;42.012;24.880;2022-12-24T01:51:29;98610.63;;;7.98;75.33
5905;BME280;2978;42.012;24.880;2022-12-24T01:56:34;98590.63;;;7.93;74.98
5905;BME280;2978;42.012;24.880;2022-12-24T01:59:04;98603.25;;;7.99;74.61
5905;BME280;2978;42.012;24.880;2022-12-24T02:01:30;98616.66;;;8.00;74.79
5905;BME280;2978;42.012;24.880;2022-12-24T02:03:56;98598.03;;;7.97;74.86
5905;BME280;2978;42.012;24.880;2022-12-24T02:06:22;98601.59;;;7.93;74.50
5905;BME280;2978;42.012;24.880;2022-12-24T02:08:48;98613.38;;;7.98;74.87
5905;BME280;2978;42.012;24.880;2022-12-24T02:11:16;98601.13;;;8.06;74.68
5905;BME280;2978;42.012;24.880;2022-12-24T02:13:45;98606.94;;;8.15;74.15
5905;BME280;2978;42.012;24.880;2022-12-24T02:16:22;98608.03;;;8.14;73.89
5905;BME280;2978;42.012;24.880;2022-12-24T02:19:17;98601.19;;;8.16;73.95
5905;BME280;2978;42.012;24.880;2022-12-24T02:22:01;98602.78;;;8.07;73.65
5905;BME280;2978;42.012;24.880;2022-12-24T02:32:38;98603.69;;;7.81;74.99
5905;BME280;2978;42.012;24.880;2022-12-24T02:35:21;98599.31;;;7.85;75.45
5905;BME280;2978;42.012;24.880;2022-12-24T02:37:52;98608.00;;;7.77;75.22
5905;BME280;2978;42.012;24.880;2022-12-24T02:41:02;98608.53;;;7.74;75.09
5905;BME280;2978;42.012;24.880;2022-12-24T02:43:32;98603.06;;;7.74;74.73
5905;BME280;2978;42.012;24.880;2022-12-24T02:46:04;98593.72;;;7.70;75.10
5905;BME280;2978;42.012;24.880;2022-12-24T02:48:31;98603.59;;;7.76;74.84
5905;BME280;2978;42.012;24.880;2022-12-24T02:51:06;98595.69;;;7.79;74.62
5905;BME280;2978;42.012;24.880;2022-12-24T02:53:33;98591.66;;;7.87;75.01
5905;BME280;2978;42.012;24.880;2022-12-24T03:05:12;98620.66;;;7.88;73.95
5905;BME280;2978;42.012;24.880;2022-12-24T03:07:50;98619.06;;;7.92;74.38
5905;BME280;2978;42.012;24.880;2022-12-24T03:10:40;98628.13;;;7.92;74.37
5905;BME280;2978;42.012;24.880;2022-12-24T03:13:15;98617.09;;;7.82;74.13
5905;BME280;2978;42.012;24.880;2022-12-24T03:15:42;98620.13;;;7.86;74.14
5905;BME280;2978;42.012;24.880;2022-12-24T03:18:10;98620.91;;;7.81;74.40
5905;BME280;2978;42.012;24.880;2022-12-24T03:20:41;98610.47;;;7.78;74.59
5905;BME280;2978;42.012;24.880;2022-12-24T03:23:08;98615.13;;;7.78;74.48
5905;BME280;2978;42.012;24.880;2022-12-24T03:25:34;98605.22;;;7.72;74.83
5905;BME280;2978;42.012;24.880;2022-12-24T03:28:04;98604.41;;;7.71;75.09
5905;BME280;2978;42.012;24.880;2022-12-24T03:30:31;98600.25;;;7.69;75.09
5905;BME280;2978;42.012;24.880;2022-12-24T03:32:57;98598.31;;;7.64;75.01
5905;BME280;2978;42.012;24.880;2022-12-24T03:35:22;98593.69;;;7.65;75.25
5905;BME280;2978;42.012;24.880;2022-12-24T03:37:48;98595.09;;;7.72;75.08
5905;BME280;2978;42.012;24.880;2022-12-24T03:40:13;98583.09;;;7.73;74.67
5905;BME280;2978;42.012;24.880;2022-12-24T03:42:38;98595.97;;;7.78;74.47
5905;BME280;2978;42.012;24.880;2022-12-24T03:45:04;98588.03;;;7.76;74.36
5905;BME280;2978;42.012;24.880;2022-12-24T03:47:30;98575.13;;;7.72;74.90
5905;BME280;2978;42.012;24.880;2022-12-24T03:49:55;98584.34;;;7.61;74.70
5905;BME280;2978;42.012;24.880;2022-12-24T03:52:21;98582.69;;;7.60;75.15
5905;BME280;2978;42.012;24.880;2022-12-24T03:54:46;98592.59;;;7.66;75.09
5905;BME280;2978;42.012;24.880;2022-12-24T03:57:12;98575.63;;;7.69;75.23
5905;BME280;2978;42.012;24.880;2022-12-24T03:59:37;98586.03;;;7.67;75.32
5905;BME280;2978;42.012;24.880;2022-12-24T04:02:03;98586.84;;;7.67;75.00
5905;BME280;2978;42.012;24.880;2022-12-24T04:04:28;98576.22;;;7.71;74.56
5905;BME280;2978;42.012;24.880;2022-12-24T04:06:53;98583.91;;;7.74;74.80
5905;BME280;2978;42.012;24.880;2022-12-24T04:09:19;98584.16;;;7.72;74.59
5905;BME280;2978;42.012;24.880;2022-12-24T04:11:44;98579.47;;;7.68;74.43
5905;BME280;2978;42.012;24.880;2022-12-24T04:14:09;98581.69;;;7.71;74.60
5905;BME280;2978;42.012;24.880;2022-12-24T04:16:35;98578.81;;;7.56;74.95
5905;BME280;2978;42.012;24.880;2022-12-24T04:19:00;98575.53;;;7.54;75.07
5905;BME280;2978;42.012;24.880;2022-12-24T04:21:26;98585.66;;;7.58;75.42
5905;BME280;2978;42.012;24.880;2022-12-24T04:23:51;98579.75;;;7.66;75.13
5905;BME280;2978;42.012;24.880;2022-12-24T04:26:17;98588.28;;;7.75;74.53
5905;BME280;2978;42.012;24.880;2022-12-24T04:28:42;98591.91;;;7.80;74.63
5905;BME280;2978;42.012;24.880;2022-12-24T04:31:11;98588.31;;;7.80;74.61
5905;BME280;2978;42.012;24.880;2022-12-24T04:33:37;98580.94;;;7.80;74.12
5905;BME280;2978;42.012;24.880;2022-12-24T04:36:03;98589.16;;;7.80;73.93
5905;BME280;2978;42.012;24.880;2022-12-24T04:38:30;98581.97;;;7.74;73.81
5905;BME280;2978;42.012;24.880;2022-12-24T04:40:59;98592.94;;;7.74;74.21
5905;BME280;2978;42.012;24.880;2022-12-24T04:43:26;98594.84;;;7.74;74.34
5905;BME280;2978;42.012;24.880;2022-12-24T04:45:52;98588.50;;;7.68;73.89
5905;BME280;2978;42.012;24.880;2022-12-24T04:48:17;98609.59;;;7.73;73.85
5905;BME280;2978;42.012;24.880;2022-12-24T04:50:42;98617.59;;;7.79;73.99
5905;BME280;2978;42.012;24.880;2022-12-24T04:53:08;98615.66;;;7.75;73.69
5905;BME280;2978;42.012;24.880;2022-12-24T04:55:33;98633.25;;;7.84;73.16
5905;BME280;2978;42.012;24.880;2022-12-24T04:57:59;98616.81;;;7.84;73.89
5905;BME280;2978;42.012;24.880;2022-12-24T05:00:24;98614.09;;;7.84;73.91
5905;BME280;2978;42.012;24.880;2022-12-24T05:02:49;98608.06;;;7.82;73.96
5905;BME280;2978;42.012;24.880;2022-12-24T05:05:15;98608.84;;;7.77;73.41
5905;BME280;2978;42.012;24.880;2022-12-24T05:07:40;98605.84;;;7.79;73.28
5905;BME280;2978;42.012;24.880;2022-12-24T05:10:06;98616.78;;;7.79;73.73
5905;BME280;2978;42.012;24.880;2022-12-24T05:12:32;98617.47;;;7.64;73.92
5905;BME280;2978;42.012;24.880;2022-12-24T05:14:57;98610.81;;;7.55;74.06
5905;BME280;2978;42.012;24.880;2022-12-24T05:17:23;98599.13;;;7.60;74.46
5905;BME280;2978;42.012;24.880;2022-12-24T05:19:48;98615.75;;;7.58;74.62
5905;BME280;2978;42.012;24.880;2022-12-24T05:22:13;98598.81;;;7.56;73.76
5905;BME280;2978;42.012;24.880;2022-12-24T05:24:57;98593.63;;;7.60;73.65
5905;BME280;2978;42.012;24.880;2022-12-24T05:27:41;98602.97;;;7.64;73.56
5905;BME280;2978;42.012;24.880;2022-12-24T05:30:07;98594.78;;;7.69;73.60
5905;BME280;2978;42.012;24.880;2022-12-24T05:32:33;98609.53;;;7.63;73.58
5905;BME280;2978;42.012;24.880;2022-12-24T05:34:58;98597.78;;;7.67;72.67
5905;BME280;2978;42.012;24.880;2022-12-24T05:37:23;98604.63;;;7.65;72.86
5905;BME280;2978;42.012;24.880;2022-12-24T05:39:49;98603.78;;;7.64;73.06
5905;BME280;2978;42.012;24.880;2022-12-24T05:42:14;98599.34;;;7.58;73.79
5905;BME280;2978;42.012;24.880;2022-12-24T05:44:40;98610.91;;;7.65;73.38
5905;BME280;2978;42.012;24.880;2022-12-24T05:47:05;98604.00;;;7.58;73.38
5905;BME280;2978;42.012;24.880;2022-12-24T05:49:30;98612.47;;;7.56;73.50
5905;BME280;2978;42.012;24.880;2022-12-24T05:51:56;98606.47;;;7.59;73.75
5905;BME280;2978;42.012;24.880;2022-12-24T05:54:21;98610.59;;;7.62;73.15
5905;BME280;2978;42.012;24.880;2022-12-24T05:56:47;98599.66;;;7.62;72.97
5905;BME280;2978;42.012;24.880;2022-12-24T05:59:12;98606.84;;;7.68;73.17
5905;BME280;2978;42.012;24.880;2022-12-24T06:01:37;98620.50;;;7.68;72.57
5905;BME280;2978;42.012;24.880;2022-12-24T06:04:03;98628.22;;;7.76;72.64
5905;BME280;2978;42.012;24.880;2022-12-24T06:06:29;98639.28;;;7.86;72.14
5905;BME280;2978;42.012;24.880;2022-12-24T06:08:55;98647.00;;;7.94;72.02
5905;BME280;2978;42.012;24.880;2022-12-24T06:11:24;98655.78;;;7.96;72.68
5905;BME280;2978;42.012;24.880;2022-12-24T06:13:51;98658.81;;;7.68;74.31
5905;BME280;2978;42.012;24.880;2022-12-24T06:16:18;98657.56;;;7.54;75.14
5905;BME280;2978;42.012;24.880;2022-12-24T06:18:45;98649.59;;;7.47;75.10
5905;BME280;2978;42.012;24.880;2022-12-24T06:21:11;98669.44;;;7.38;76.20
5905;BME280;2978;42.012;24.880;2022-12-24T06:23:38;98661.69;;;7.30;76.71
5905;BME280;2978;42.012;24.880;2022-12-24T06:26:05;98673.31;;;7.20;77.44
5905;BME280;2978;42.012;24.880;2022-12-24T06:28:33;98673.53;;;7.14;77.12
5905;BME280;2978;42.012;24.880;2022-12-24T06:30:59;98667.53;;;7.17;76.35
5905;BME280;2978;42.012;24.880;2022-12-24T06:33:28;98662.59;;;7.14;76.67
5905;BME280;2978;42.012;24.880;2022-12-24T06:35:54;98664.44;;;7.30;75.44
5905;BME280;2978;42.012;24.880;2022-12-24T06:38:19;98662.44;;;7.47;74.77
5905;BME280;2978;42.012;24.880;2022-12-24T06:40:45;98652.16;;;7.59;74.09
5905;BME280;2978;42.012;24.880;2022-12-24T06:43:12;98654.19;;;7.68;73.46
5905;BME280;2978;42.012;24.880;2022-12-24T06:45:38;98646.84;;;7.74;72.09
5905;BME280;2978;42.012;24.880;2022-12-24T06:48:04;98663.66;;;7.87;71.82
5905;BME280;2978;42.012;24.880;2022-12-24T06:50:31;98659.88;;;7.93;72.14
5905;BME280;2978;42.012;24.880;2022-12-24T06:52:57;98646.47;;;7.97;71.35
5905;BME280;2978;42.012;24.880;2022-12-24T06:55:22;98651.50;;;8.05;71.53
5905;BME280;2978;42.012;24.880;2022-12-24T06:57:48;98645.53;;;8.13;70.87
5905;BME280;2978;42.012;24.880;2022-12-24T07:00:13;98656.81;;;8.22;70.74
5905;BME280;2978;42.012;24.880;2022-12-24T07:02:40;98659.25;;;8.18;70.75
5905;BME280;2978;42.012;24.880;2022-12-24T07:05:07;98650.59;;;8.26;69.87
5905;BME280;2978;42.012;24.880;2022-12-24T07:07:37;98640.03;;;8.13;70.19
5905;BME280;2978;42.012;24.880;2022-12-24T07:10:04;98638.41;;;8.12;70.25
5905;BME280;2978;42.012;24.880;2022-12-24T07:12:29;98620.84;;;8.08;70.62
5905;BME280;2978;42.012;24.880;2022-12-24T07:14:55;98628.59;;;8.21;70.47
5905;BME280;2978;42.012;24.880;2022-12-24T07:17:20;98620.38;;;8.21;69.63
5905;BME280;2978;42.012;24.880;2022-12-24T07:19:46;98637.03;;;8.15;70.31
5905;BME280;2978;42.012;24.880;2022-12-24T07:22:11;98648.28;;;8.18;70.00
5905;BME280;2978;42.012;24.880;2022-12-24T07:24:37;98631.56;;;8.15;69.94
5905;BME280;2978;42.012;24.880;2022-12-24T07:27:02;98638.72;;;8.16;70.10
5905;BME280;2978;42.012;24.880;2022-12-24T07:29:27;98632.69;;;8.19;70.39
5905;BME280;2978;42.012;24.880;2022-12-24T07:31:53;98635.28;;;8.30;69.72
5905;BME280;2978;42.012;24.880;2022-12-24T07:34:18;98635.94;;;8.47;69.03
5905;BME280;2978;42.012;24.880;2022-12-24T07:36:44;98639.81;;;8.56;68.73
5905;BME280;2978;42.012;24.880;2022-12-24T07:39:09;98632.16;;;8.58;68.40
5905;BME280;2978;42.012;24.880;2022-12-24T07:41:35;98650.38;;;8.79;67.80
5905;BME280;2978;42.012;24.880;2022-12-24T07:44:00;98653.19;;;8.94;67.34
5905;BME280;2978;42.012;24.880;2022-12-24T07:46:25;98658.19;;;9.13;67.04
5905;BME280;2978;42.012;24.880;2022-12-24T07:48:51;98658.81;;;9.30;66.01
5905;BME280;2978;42.012;24.880;2022-12-24T07:51:16;98660.97;;;9.23;66.22
5905;BME280;2978;42.012;24.880;2022-12-24T07:53:42;98673.09;;;9.37;69.36
5905;BME280;2978;42.012;24.880;2022-12-24T07:56:13;98664.81;;;9.22;71.19
5905;BME280;2978;42.012;24.880;2022-12-24T07:58:39;98677.50;;;9.33;71.21
5905;BME280;2978;42.012;24.880;2022-12-24T08:01:04;98686.34;;;9.55;70.84
5905;BME280;2978;42.012;24.880;2022-12-24T08:03:30;98685.56;;;9.74;70.16
5905;BME280;2978;42.012;24.880;2022-12-24T08:05:55;98687.47;;;9.69;69.57
5905;BME280;2978;42.012;24.880;2022-12-24T08:08:22;98684.47;;;9.80;69.29
5905;BME280;2978;42.012;24.880;2022-12-24T08:10:48;98694.94;;;9.93;68.34
5905;BME280;2978;42.012;24.880;2022-12-24T08:13:13;98693.03;;;10.04;68.41
5905;BME280;2978;42.012;24.880;2022-12-24T08:15:39;98694.13;;;10.13;67.97
5905;BME280;2978;42.012;24.880;2022-12-24T08:18:04;98704.03;;;10.29;67.21
5905;BME280;2978;42.012;24.880;2022-12-24T08:20:30;98707.06;;;10.33;67.01
5905;BME280;2978;42.012;24.880;2022-12-24T08:22:55;98713.94;;;10.30;66.73
5905;BME280;2978;42.012;24.880;2022-12-24T08:25:21;98712.84;;;10.31;66.65
5905;BME280;2978;42.012;24.880;2022-12-24T08:27:46;98710.38;;;10.35;66.60
5905;BME280;2978;42.012;24.880;2022-12-24T08:30:12;98710.63;;;10.43;66.59
5905;BME280;2978;42.012;24.880;2022-12-24T08:32:38;98711.19;;;10.55;66.30
5905;BME280;2978;42.012;24.880;2022-12-24T08:35:04;98710.63;;;10.53;66.03
5905;BME280;2978;42.012;24.880;2022-12-24T08:37:29;98715.03;;;10.54;65.51
5905;BME280;2978;42.012;24.880;2022-12-24T08:39:54;98702.66;;;10.67;65.32
5905;BME280;2978;42.012;24.880;2022-12-24T08:42:20;98712.25;;;10.79;64.74
5905;BME280;2978;42.012;24.880;2022-12-24T08:44:45;98708.44;;;10.75;64.24
5905;BME280;2978;42.012;24.880;2022-12-24T08:47:11;98702.94;;;10.75;64.33
5905;BME280;2978;42.012;24.880;2022-12-24T08:49:36;98702.63;;;10.82;64.75
5905;BME280;2978;42.012;24.880;2022-12-24T08:52:02;98693.00;;;10.84;64.79
5905;BME280;2978;42.012;24.880;2022-12-24T08:54:27;98689.13;;;10.90;64.51
5905;BME280;2978;42.012;24.880;2022-12-24T08:56:53;98698.47;;;10.94;64.67
5905;BME280;2978;42.012;24.880;2022-12-24T08:59:18;98694.06;;;10.93;64.22
5905;BME280;2978;42.012;24.880;2022-12-24T09:01:44;98686.91;;;10.97;63.08
5905;BME280;2978;42.012;24.880;2022-12-24T09:04:09;98686.69;;;10.79;62.58
5905;BME280;2978;42.012;24.880;2022-12-24T09:06:35;98688.91;;;10.77;62.67
5905;BME280;2978;42.012;24.880;2022-12-24T09:09:02;98694.16;;;10.63;63.45
5905;BME280;2978;42.012;24.880;2022-12-24T09:11:27;98682.03;;;10.69;63.40
5905;BME280;2978;42.012;24.880;2022-12-24T09:13:53;98691.38;;;10.68;63.48
5905;BME280;2978;42.012;24.880;2022-12-24T09:16:18;98685.31;;;10.71;63.29
5905;BME280;2978;42.012;24.880;2022-12-24T09:18:44;98683.94;;;10.64;64.02
5905;BME280;2978;42.012;24.880;2022-12-24T09:21:12;98687.78;;;10.73;63.63
5905;BME280;2978;42.012;24.880;2022-12-24T09:23:40;98686.44;;;10.75;63.17
5905;BME280;2978;42.012;24.880;2022-12-24T09:26:13;98676.22;;;10.76;63.22
5905;BME280;2978;42.012;24.880;2022-12-24T09:28:39;98677.88;;;10.87;62.69
5905;BME280;2978;42.012;24.880;2022-12-24T09:31:05;98679.75;;;10.91;63.08
5905;BME280;2978;42.012;24.880;2022-12-24T09:33:36;98676.22;;;10.91;63.52
5905;BME280;2978;42.012;24.880;2022-12-24T09:36:03;98678.69;;;10.92;63.22
5905;BME280;2978;42.012;24.880;2022-12-24T09:38:28;98673.47;;;10.91;63.67
5905;BME280;2978;42.012;24.880;2022-12-24T09:40:55;98667.91;;;11.01;63.56
5905;BME280;2978;42.012;24.880;2022-12-24T09:43:23;98667.88;;;11.11;63.62
5905;BME280;2978;42.012;24.880;2022-12-24T09:48:32;98668.66;;;11.21;64.05
5905;BME280;2978;42.012;24.880;2022-12-24T09:51:03;98661.75;;;11.34;63.43
5905;BME280;2978;42.012;24.880;2022-12-24T09:56:25;98645.66;;;11.56;63.14
5905;BME280;2978;42.012;24.880;2022-12-24T09:59:02;98645.34;;;11.68;62.90
5905;BME280;2978;42.012;24.880;2022-12-24T10:01:31;98630.97;;;11.76;63.06
5905;BME280;2978;42.012;24.880;2022-12-24T10:04:00;98631.97;;;11.90;63.26
5905;BME280;2978;42.012;24.880;2022-12-24T10:06:35;98631.75;;;12.20;62.75
5905;BME280;2978;42.012;24.880;2022-12-24T10:12:02;98625.06;;;12.55;61.84
5905;BME280;2978;42.012;24.880;2022-12-24T10:14:51;98616.56;;;12.75;61.39
5905;BME280;2978;42.012;24.880;2022-12-24T10:20:23;98616.28;;;13.00;61.26
5905;BME280;2978;42.012;24.880;2022-12-24T10:27:54;98619.56;;;13.49;60.34
5905;BME280;2978;42.012;24.880;2022-12-24T10:30:23;98612.44;;;13.62;60.68
5905;BME280;2978;42.012;24.880;2022-12-24T10:32:50;98602.06;;;13.91;59.72
5905;BME280;2978;42.012;24.880;2022-12-24T10:37:48;98590.47;;;14.07;59.85
5905;BME280;2978;42.012;24.880;2022-12-24T10:40:35;98595.09;;;14.12;59.75
5905;BME280;2978;42.012;24.880;2022-12-24T10:43:22;98596.41;;;14.14;59.92
5905;BME280;2978;42.012;24.880;2022-12-24T10:45:56;98593.06;;;14.17;59.69
5905;BME280;2978;42.012;24.880;2022-12-24T10:48:32;98602.34;;;14.08;59.52
5905;BME280;2978;42.012;24.880;2022-12-24T10:51:05;98591.69;;;14.01;58.56
5905;BME280;2978;42.012;24.880;2022-12-24T10:53:39;98596.19;;;14.11;58.94
5905;BME280;2978;42.012;24.880;2022-12-24T10:56:10;98600.53;;;14.17;58.53
5905;BME280;2978;42.012;24.880;2022-12-24T10:58:36;98606.88;;;14.36;59.62
5905;BME280;2978;42.012;24.880;2022-12-24T11:01:07;98604.44;;;14.48;59.64
5905;BME280;2978;42.012;24.880;2022-12-24T11:03:33;98597.88;;;14.57;59.04
5905;BME280;2978;42.012;24.880;2022-12-24T11:06:14;98602.44;;;14.67;59.42
5905;BME280;2978;42.012;24.880;2022-12-24T11:08:44;98607.03;;;14.72;59.27
5905;BME280;2978;42.012;24.880;2022-12-24T11:11:16;98604.09;;;14.82;59.12
5905;BME280;2978;42.012;24.880;2022-12-24T11:16:25;98602.97;;;14.96;58.46
5905;BME280;2978;42.012;24.880;2022-12-24T11:18:54;98600.91;;;15.15;58.10
5905;BME280;2978;42.012;24.880;2022-12-24T11:21:26;98594.75;;;15.32;57.31
5905;BME280;2978;42.012;24.880;2022-12-24T11:26:39;98591.47;;;15.43;55.92
5905;BME280;2978;42.012;24.880;2022-12-24T11:31:40;98579.59;;;15.43;55.89
5905;BME280;2978;42.012;24.880;2022-12-24T11:36:46;98562.28;;;15.59;55.27
5905;BME280;2978;42.012;24.880;2022-12-24T11:39:20;98564.56;;;15.57;55.15
5905;BME280;2978;42.012;24.880;2022-12-24T11:41:47;98563.72;;;15.57;55.12
5905;BME280;2978;42.012;24.880;2022-12-24T11:44:26;98562.09;;;15.56;55.28
5905;BME280;2978;42.012;24.880;2022-12-24T11:46:52;98564.78;;;15.47;55.83
5905;BME280;2978;42.012;24.880;2022-12-24T11:49:28;98546.94;;;15.26;56.83
5905;BME280;2978;42.012;24.880;2022-12-24T11:52:11;98563.69;;;15.21;57.56
5905;BME280;2978;42.012;24.880;2022-12-24T11:57:31;98564.31;;;14.91;57.72
5905;BME280;2978;42.012;24.880;2022-12-24T12:00:02;98568.09;;;14.95;58.25
5905;BME280;2978;42.012;24.880;2022-12-24T12:02:34;98571.56;;;14.87;57.63
5905;BME280;2978;42.012;24.880;2022-12-24T12:05:22;98564.41;;;14.86;57.61
5905;BME280;2978;42.012;24.880;2022-12-24T12:07:52;98575.59;;;14.95;57.33
5905;BME280;2978;42.012;24.880;2022-12-24T12:10:27;98579.50;;;14.94;57.17
5905;BME280;2978;42.012;24.880;2022-12-24T12:13:04;98585.34;;;14.92;57.39
5905;BME280;2978;42.012;24.880;2022-12-24T12:15:38;98577.13;;;14.87;57.16
5905;BME280;2978;42.012;24.880;2022-12-24T12:18:14;98577.00;;;14.79;57.10
5905;BME280;2978;42.012;24.880;2022-12-24T12:20:44;98581.66;;;14.83;57.04
5905;BME280;2978;42.012;24.880;2022-12-24T12:23:16;98577.94;;;14.74;57.65
5905;BME280;2978;42.012;24.880;2022-12-24T12:25:51;98569.31;;;14.89;57.45
5905;BME280;2978;42.012;24.880;2022-12-24T12:33:51;98564.81;;;14.93;57.47
5905;BME280;2978;42.012;24.880;2022-12-24T12:39:12;98569.34;;;14.76;58.32
5905;BME280;2978;42.012;24.880;2022-12-24T12:50:16;98556.22;;;14.81;58.91
5905;BME280;2978;42.012;24.880;2022-12-24T13:00:43;98564.50;;;15.08;57.86
5905;BME280;2978;42.012;24.880;2022-12-24T13:17:17;98559.50;;;14.83;58.79
5905;BME280;2978;42.012;24.880;2022-12-24T13:22:37;98566.13;;;14.55;61.05
5905;BME280;2978;42.012;24.880;2022-12-24T13:25:03;98574.13;;;14.43;61.84
5905;BME280;2978;42.012;24.880;2022-12-24T13:27:30;98574.78;;;14.35;61.71
5905;BME280;2978;42.012;24.880;2022-12-24T13:30:36;98581.38;;;14.39;61.04
5905;BME280;2978;42.012;24.880;2022-12-24T13:33:01;98591.47;;;14.30;61.18
5905;BME280;2978;42.012;24.880;2022-12-24T13:35:30;98600.66;;;14.25;61.10
5905;BME280;2978;42.012;24.880;2022-12-24T13:40:50;98613.22;;;14.18;61.19
5905;BME280;2978;42.012;24.880;2022-12-24T13:43:16;98617.75;;;14.14;60.76
5905;BME280;2978;42.012;24.880;2022-12-24T13:45:43;98615.03;;;14.09;60.88
5905;BME280;2978;42.012;24.880;2022-12-24T13:53:43;98609.19;;;13.78;60.32
5905;BME280;2978;42.012;24.880;2022-12-24T13:59:37;98609.84;;;13.89;60.25
5905;BME280;2978;42.012;24.880;2022-12-24T14:01:56;98608.03;;;13.79;60.37
5905;BME280;2978;42.012;24.880;2022-12-24T14:04:32;98592.22;;;13.85;60.90
5905;BME280;2978;42.012;24.880;2022-12-24T14:07:02;98607.44;;;14.01;60.43
5905;BME280;2978;42.012;24.880;2022-12-24T14:09:29;98601.00;;;14.05;60.73
5905;BME280;2978;42.012;24.880;2022-12-24T14:14:31;98600.28;;;14.00;61.50
5905;BME280;2978;42.012;24.880;2022-12-24T14:17:21;98604.97;;;13.99;61.66
5905;BME280;2978;42.012;24.880;2022-12-24T14:19:51;98604.22;;;13.94;61.95
5905;BME280;2978;42.012;24.880;2022-12-24T14:22:29;98613.56;;;13.98;61.68
5905;BME280;2978;42.012;24.880;2022-12-24T14:25:11;98614.59;;;14.02;61.88
5905;BME280;2978;42.012;24.880;2022-12-24T14:27:42;98608.84;;;13.98;62.14
5905;BME280;2978;42.012;24.880;2022-12-24T14:30:29;98611.56;;;13.85;62.42
5905;BME280;2978;42.012;24.880;2022-12-24T14:32:55;98596.63;;;13.86;62.90
5905;BME280;2978;42.012;24.880;2022-12-24T14:35:27;98607.47;;;13.82;63.16
5905;BME280;2978;42.012;24.880;2022-12-24T14:38:03;98613.66;;;13.74;63.24
5905;BME280;2978;42.012;24.880;2022-12-24T14:40:31;98611.03;;;13.64;63.54
5905;BME280;2978;42.012;24.880;2022-12-24T14:45:47;98606.84;;;13.48;64.57
5905;BME280;2978;42.012;24.880;2022-12-24T14:48:33;98597.09;;;13.37;65.04
5905;BME280;2978;42.012;24.880;2022-12-24T14:51:12;98604.59;;;13.31;64.92
5905;BME280;2978;42.012;24.880;2022-12-24T14:56:32;98607.78;;;13.20;66.08
5905;BME280;2978;42.012;24.880;2022-12-24T14:58:59;98609.38;;;13.26;66.13
5905;BME280;2978;42.012;24.880;2022-12-24T15:01:30;98604.28;;;13.14;66.69
5905;BME280;2978;42.012;24.880;2022-12-24T15:04:18;98610.38;;;13.11;66.75
5905;BME280;2978;42.012;24.880;2022-12-24T15:06:50;98613.91;;;13.17;66.75
5905;BME280;2978;42.012;24.880;2022-12-24T15:09:23;98612.25;;;13.16;66.76
5905;BME280;2978;42.012;24.880;2022-12-24T15:11:52;98616.59;;;12.98;68.23
5905;BME280;2978;42.012;24.880;2022-12-24T15:14:20;98618.22;;;12.99;68.76
5905;BME280;2978;42.012;24.880;2022-12-24T15:16:55;98612.00;;;12.89;69.16
5905;BME280;2978;42.012;24.880;2022-12-24T15:19:26;98611.75;;;12.85;69.70